Time;durP1;ratioP1;P1;durP2;ratioP2;P2;SDS_P1;SDS_P2;PMS_P1;PMS_P2;Temp;Humidity;BMP_temperature;BMP_pressure;BME280_temperature;BME280_humidity;BME280_pressure;Samples;Min_cycle;Max_cycle;Signal;HPM_P1;HPM_P2
2020/12/22 00:00:09;;;;;;;2.00;1.90;;;;;;;;;;2050713;29;20234;-56
2020/12/22 00:01:09;;;;;;;1.90;1.80;;;;;;;;;;2058233;28;20170;-54
2020/12/22 00:02:09;;;;;;;1.90;1.80;;;;;;;;;;2059272;28;20174;-56
2020/12/22 00:03:09;;;;;;;2.00;1.90;;;;;;;;;;2060418;28;20646;-57
2020/12/22 00:04:10;;;;;;;2.17;2.08;;;;;;;;;;2060309;28;20678;-53
2020/12/22 00:05:11;;;;;;;2.20;2.10;;;;;;;;;;2051778;29;20258;-55
2020/12/22 00:06:11;;;;;;;2.92;2.80;;;;;;;;;;2052885;29;20178;-52
2020/12/22 00:07:11;;;;;;;2.75;2.63;;;;;;;;;;2044297;29;20205;-54
2020/12/22 00:08:12;;;;;;;2.72;2.53;;;;;;;;;;2036121;29;20325;-53
2020/12/22 00:09:12;;;;;;;3.25;3.05;;;;;;;;;;2051518;29;20167;-55
2020/12/22 00:10:12;;;;;;;3.47;3.28;;;;;;;;;;2060296;28;20639;-53
2020/12/22 00:11:13;;;;;;;3.85;3.63;;;;;;;;;;2060527;28;20170;-55
2020/12/22 00:12:16;;;;;;;3.95;3.72;;;;;;;;;;2052249;28;20175;-54
2020/12/22 00:13:17;;;;;;;4.60;4.30;;;;;;;;;;2045207;29;20211;-54
2020/12/22 00:14:17;;;;;;;4.68;4.38;;;;;;;;;;2052757;29;20201;-53
2020/12/22 00:15:17;;;;;;;4.38;4.07;;;;;;;;;;2061007;28;20236;-56
2020/12/22 00:16:18;;;;;;;5.05;4.68;;;;;;;;;;2061363;28;20166;-55
2020/12/22 00:17:18;;;;;;;4.95;4.60;;;;;;;;;;2059883;28;20202;-56
2020/12/22 00:18:19;;;;;;;5.57;5.18;;;;;;;;;;2052925;29;20175;-56
2020/12/22 00:19:19;;;;;;;5.75;5.35;;;;;;;;;;2045561;29;20199;-52
2020/12/22 00:20:20;;;;;;;5.57;5.18;;;;;;;;;;2052955;29;20170;-56
2020/12/22 00:21:20;;;;;;;6.28;5.78;;;;;;;;;;2060803;28;20193;-55
2020/12/22 00:22:21;;;;;;;6.07;5.63;;;;;;;;;;2052842;29;20187;-53
2020/12/22 00:23:21;;;;;;;5.38;4.97;;;;;;;;;;2052946;29;20218;-53
2020/12/22 00:24:21;;;;;;;6.30;5.80;;;;;;;;;;2061758;28;20177;-56
2020/12/22 00:25:21;;;;;;;6.60;6.00;;;;;;;;;;2062040;28;20257;-52
2020/12/22 00:26:22;;;;;;;6.93;6.32;;;;;;;;;;2061375;28;20243;-52
2020/12/22 00:27:22;;;;;;;6.78;6.20;;;;;;;;;;2060803;28;20194;-54
2020/12/22 00:28:22;;;;;;;6.43;5.90;;;;;;;;;;2061156;28;20186;-54
2020/12/22 00:29:22;;;;;;;7.57;6.88;;;;;;;;;;2052575;29;20183;-54
2020/12/22 00:30:23;;;;;;;6.85;6.28;;;;;;;;;;2043939;29;20259;-55
2020/12/22 00:31:23;;;;;;;7.80;7.03;;;;;;;;;;2052469;29;20190;-54
2020/12/22 00:32:23;;;;;;;7.07;6.45;;;;;;;;;;2061942;28;20333;-57
2020/12/22 00:33:24;;;;;;;6.65;6.05;;;;;;;;;;2061518;28;20178;-56
2020/12/22 00:34:24;;;;;;;7.35;6.75;;;;;;;;;;2061778;28;20181;-53
2020/12/22 00:35:24;;;;;;;7.47;6.78;;;;;;;;;;2053524;29;20274;-52
2020/12/22 00:36:25;;;;;;;8.95;8.15;;;;;;;;;;2053016;29;20180;-54
2020/12/22 00:37:25;;;;;;;9.55;8.70;;;;;;;;;;2044886;29;20178;-53
2020/12/22 00:38:25;;;;;;;8.32;7.55;;;;;;;;;;2053957;29;20579;-57
2020/12/22 00:39:26;;;;;;;8.32;7.53;;;;;;;;;;2060544;28;20302;-53
2020/12/22 00:40:27;;;;;;;8.10;7.35;;;;;;;;;;2062657;28;20234;-52
2020/12/22 00:41:27;;;;;;;8.43;7.65;;;;;;;;;;2054225;29;20742;-53
2020/12/22 00:42:33;;;;;;;8.52;7.63;;;;;;;;;;2054851;29;20175;-54
2020/12/22 00:43:33;;;;;;;8.95;8.15;;;;;;;;;;2054324;29;20175;-54
2020/12/22 00:44:34;;;;;;;9.55;8.55;;;;;;;;;;2053629;29;20187;-53
2020/12/22 00:45:34;;;;;;;9.52;8.55;;;;;;;;;;2053953;29;20198;-52
2020/12/22 00:46:34;;;;;;;9.55;8.68;;;;;;;;;;2053812;28;20178;-53
2020/12/22 00:47:35;;;;;;;10.02;8.90;;;;;;;;;;2052438;29;20182;-54
2020/12/22 00:49:38;;;;;;;9.40;8.50;;;;;;;;;;2055384;28;21286;-61
2020/12/22 00:50:39;;;;;;;10.15;9.20;;;;;;;;;;2066956;28;20190;-62
2020/12/22 00:51:39;;;;;;;9.70;8.70;;;;;;;;;;2051303;28;20202;-59
2020/12/22 00:52:39;;;;;;;11.73;9.75;;;;;;;;;;2049666;28;20265;-61
2020/12/22 00:53:41;;;;;;;11.30;9.68;;;;;;;;;;2057268;28;20189;-62
2020/12/22 00:54:41;;;;;;;11.10;10.00;;;;;;;;;;2049646;28;20787;-62
2020/12/22 00:55:43;;;;;;;11.55;9.85;;;;;;;;;;2049321;29;20210;-64
2020/12/22 00:56:46;;;;;;;11.10;10.00;;;;;;;;;;2051003;28;20654;-59
2020/12/22 00:57:52;;;;;;;11.35;10.20;;;;;;;;;;2060963;28;20209;-63
2020/12/22 00:58:53;;;;;;;11.52;10.32;;;;;;;;;;2057652;28;20186;-61
2020/12/22 00:59:53;;;;;;;11.65;10.52;;;;;;;;;;2066083;28;20192;-64
2020/12/22 01:00:54;;;;;;;11.40;10.23;;;;;;;;;;2066067;28;20209;-62
2020/12/22 01:01:54;;;;;;;11.25;10.05;;;;;;;;;;2067526;28;20187;-61
2020/12/22 01:02:54;;;;;;;10.82;9.60;;;;;;;;;;2065979;28;20165;-61
2020/12/22 01:03:55;;;;;;;10.82;9.73;;;;;;;;;;2068912;28;20177;-60
2020/12/22 01:04:55;;;;;;;10.38;9.07;;;;;;;;;;2065866;28;20177;-58
2020/12/22 01:05:57;;;;;;;11.27;10.07;;;;;;;;;;2057922;28;20170;-63
2020/12/22 01:06:57;;;;;;;11.40;10.20;;;;;;;;;;2052311;28;20698;-62
2020/12/22 01:07:57;;;;;;;10.90;9.73;;;;;;;;;;2056367;28;20213;-63
2020/12/22 01:08:57;;;;;;;10.25;9.25;;;;;;;;;;2056535;28;20204;-63
2020/12/22 01:09:58;;;;;;;10.40;9.48;;;;;;;;;;2065546;28;20674;-63
2020/12/22 01:10:59;;;;;;;11.05;9.98;;;;;;;;;;2066096;28;20240;-62
2020/12/22 01:11:59;;;;;;;9.70;8.80;;;;;;;;;;2065903;28;20181;-63
2020/12/22 01:12:59;;;;;;;10.77;9.68;;;;;;;;;;2065983;28;20177;-62
2020/12/22 01:14:00;;;;;;;11.38;9.77;;;;;;;;;;2066119;28;20194;-61
2020/12/22 01:15:00;;;;;;;11.77;10.57;;;;;;;;;;2057509;28;20189;-63
2020/12/22 01:16:00;;;;;;;11.15;9.95;;;;;;;;;;2057755;28;20306;-60
2020/12/22 01:17:01;;;;;;;12.05;10.73;;;;;;;;;;2066047;28;20265;-61
2020/12/22 01:18:01;;;;;;;11.77;10.50;;;;;;;;;;2065763;28;20220;-63
2020/12/22 01:19:01;;;;;;;11.30;10.18;;;;;;;;;;2065866;28;20196;-62
2020/12/22 01:20:02;;;;;;;11.70;10.50;;;;;;;;;;2066088;28;20634;-61
2020/12/22 01:21:02;;;;;;;11.93;10.68;;;;;;;;;;2066096;28;20268;-62
2020/12/22 01:22:03;;;;;;;12.52;11.20;;;;;;;;;;2070206;28;20613;-62
2020/12/22 01:23:03;;;;;;;11.07;9.88;;;;;;;;;;2073384;28;20181;-65
2020/12/22 01:24:06;;;;;;;11.45;10.27;;;;;;;;;;2066023;28;20158;-61
2020/12/22 01:25:06;;;;;;;11.95;10.73;;;;;;;;;;2065888;28;20285;-63
2020/12/22 01:26:07;;;;;;;13.82;11.45;;;;;;;;;;2057229;28;20186;-63
2020/12/22 01:27:07;;;;;;;13.13;11.13;;;;;;;;;;2058361;28;20177;-62
2020/12/22 01:28:07;;;;;;;12.82;11.45;;;;;;;;;;2065761;28;20178;-62
2020/12/22 01:29:07;;;;;;;12.30;11.10;;;;;;;;;;2057119;28;20286;-63
2020/12/22 01:30:08;;;;;;;11.85;10.40;;;;;;;;;;2056998;28;20162;-64
2020/12/22 01:31:08;;;;;;;11.52;10.32;;;;;;;;;;2068326;28;20187;-63
2020/12/22 01:32:08;;;;;;;13.02;11.68;;;;;;;;;;2070095;28;20182;-61
2020/12/22 01:33:08;;;;;;;13.43;11.23;;;;;;;;;;2065869;28;20529;-63
2020/12/22 01:34:09;;;;;;;12.00;10.70;;;;;;;;;;2057311;28;20640;-61
2020/12/22 01:35:09;;;;;;;13.10;10.80;;;;;;;;;;2057387;28;20248;-60
2020/12/22 01:36:09;;;;;;;12.52;10.77;;;;;;;;;;2056928;28;20167;-59
2020/12/22 01:37:10;;;;;;;12.65;10.80;;;;;;;;;;2066217;28;20194;-59
2020/12/22 01:38:10;;;;;;;11.13;10.10;;;;;;;;;;2073901;28;20173;-61
2020/12/22 01:39:11;;;;;;;11.88;10.32;;;;;;;;;;2074061;28;20192;-60
2020/12/22 01:40:11;;;;;;;11.10;9.77;;;;;;;;;;2073759;28;20179;-60
2020/12/22 01:41:11;;;;;;;11.73;10.52;;;;;;;;;;2073915;28;20530;-61
2020/12/22 01:42:12;;;;;;;11.52;10.32;;;;;;;;;;2068161;28;20185;-59
2020/12/22 01:43:12;;;;;;;10.95;9.68;;;;;;;;;;2065902;28;20200;-60
2020/12/22 01:44:15;;;;;;;10.75;9.65;;;;;;;;;;2062685;28;20658;-63
2020/12/22 01:45:15;;;;;;;11.15;9.75;;;;;;;;;;2058842;28;20185;-60
2020/12/22 01:46:16;;;;;;;10.57;9.57;;;;;;;;;;2065848;28;20177;-63
2020/12/22 01:47:16;;;;;;;11.07;9.73;;;;;;;;;;2069235;28;20169;-59
2020/12/22 01:48:16;;;;;;;11.23;9.75;;;;;;;;;;2064886;28;20181;-62
2020/12/22 01:49:20;;;;;;;11.07;9.70;;;;;;;;;;2064959;28;20666;-62
2020/12/22 01:50:20;;;;;;;9.70;8.70;;;;;;;;;;2073991;28;20239;-62
2020/12/22 01:51:22;;;;;;;9.93;8.93;;;;;;;;;;2073855;28;20181;-61
2020/12/22 01:52:22;;;;;;;10.25;9.25;;;;;;;;;;2066825;28;20194;-61
2020/12/22 01:53:22;;;;;;;10.13;9.10;;;;;;;;;;2056927;28;20714;-62
2020/12/22 01:54:25;;;;;;;9.45;8.52;;;;;;;;;;2057187;28;20166;-64
2020/12/22 01:55:25;;;;;;;9.73;8.73;;;;;;;;;;2065725;28;20517;-62
2020/12/22 01:56:26;;;;;;;10.35;9.35;;;;;;;;;;2057177;28;20250;-63
2020/12/22 01:57:26;;;;;;;9.52;8.63;;;;;;;;;;2058713;28;20232;-63
2020/12/22 01:58:27;;;;;;;9.23;8.32;;;;;;;;;;2060354;28;20666;-62
2020/12/22 01:59:27;;;;;;;9.82;8.93;;;;;;;;;;2067287;28;20239;-64
2020/12/22 02:00:27;;;;;;;9.43;8.43;;;;;;;;;;2065909;28;20188;-63
2020/12/22 02:01:29;;;;;;;10.52;9.25;;;;;;;;;;2065576;28;20177;-61
2020/12/22 02:02:30;;;;;;;10.02;9.02;;;;;;;;;;2065695;28;20185;-62
2020/12/22 02:03:30;;;;;;;11.25;10.10;;;;;;;;;;2065680;28;20180;-62
2020/12/22 02:04:30;;;;;;;10.77;9.68;;;;;;;;;;2065529;28;20185;-62
2020/12/22 02:05:32;;;;;;;10.05;9.05;;;;;;;;;;2065871;28;20193;-64
2020/12/22 02:06:33;;;;;;;11.20;10.07;;;;;;;;;;2064802;28;20543;-64
2020/12/22 02:07:34;;;;;;;11.75;10.60;;;;;;;;;;2071510;28;20205;-62
2020/12/22 02:08:35;;;;;;;12.18;10.98;;;;;;;;;;2073251;28;20227;-63
2020/12/22 02:09:35;;;;;;;12.50;10.73;;;;;;;;;;2064898;28;20621;-60
2020/12/22 02:10:47;;;;;;;12.50;11.23;;;;;;;;;;2064962;28;20225;-60
2020/12/22 02:11:47;;;;;;;12.27;10.65;;;;;;;;;;2071277;28;20161;-61
2020/12/22 02:12:47;;;;;;;12.18;11.02;;;;;;;;;;2065222;28;20228;-61
2020/12/22 02:13:48;;;;;;;13.63;12.23;;;;;;;;;;2065623;28;20185;-63
2020/12/22 02:14:48;;;;;;;13.90;12.07;;;;;;;;;;2048939;29;20203;-62
2020/12/22 02:15:48;;;;;;;14.45;12.90;;;;;;;;;;2056025;28;20579;-62
2020/12/22 02:16:48;;;;;;;13.85;12.15;;;;;;;;;;2071776;28;20196;-64
2020/12/22 02:17:48;;;;;;;14.80;13.20;;;;;;;;;;2073314;28;20169;-61
2020/12/22 02:18:49;;;;;;;13.88;12.45;;;;;;;;;;2064615;28;20336;-61
2020/12/22 02:19:50;;;;;;;15.15;13.52;;;;;;;;;;2065009;28;20166;-61
2020/12/22 02:20:50;;;;;;;14.98;13.48;;;;;;;;;;2071928;28;20688;-62
2020/12/22 02:21:51;;;;;;;15.27;13.52;;;;;;;;;;2064706;28;20661;-61
2020/12/22 02:22:51;;;;;;;14.93;13.32;;;;;;;;;;2064969;28;20701;-62
2020/12/22 02:23:54;;;;;;;17.65;13.70;;;;;;;;;;2056876;28;20198;-62
2020/12/22 02:24:54;;;;;;;15.15;13.50;;;;;;;;;;2050129;28;20203;-56
2020/12/22 02:25:55;;;;;;;15.40;13.80;;;;;;;;;;2065115;28;20236;-63
2020/12/22 02:26:55;;;;;;;16.23;14.63;;;;;;;;;;2059661;28;20208;-61
2020/12/22 02:27:55;;;;;;;15.63;14.13;;;;;;;;;;2064847;28;20192;-62
2020/12/22 02:28:55;;;;;;;16.88;14.30;;;;;;;;;;2073238;28;20683;-62
2020/12/22 02:29:56;;;;;;;15.52;13.93;;;;;;;;;;2072944;28;20188;-62
2020/12/22 02:30:56;;;;;;;14.63;13.20;;;;;;;;;;2062714;28;20241;-59
2020/12/22 02:31:59;;;;;;;16.27;14.25;;;;;;;;;;2066268;28;20204;-62
2020/12/22 02:32:59;;;;;;;15.40;13.80;;;;;;;;;;2074980;28;20289;-62
2020/12/22 02:33:59;;;;;;;15.70;14.10;;;;;;;;;;2057967;28;20178;-62
2020/12/22 02:35:00;;;;;;;15.45;13.85;;;;;;;;;;2048522;29;20187;-62
2020/12/22 02:36:00;;;;;;;16.05;14.45;;;;;;;;;;2048882;28;20225;-64
2020/12/22 02:37:00;;;;;;;16.13;14.60;;;;;;;;;;2071968;28;20661;-59
2020/12/22 02:38:00;;;;;;;16.42;14.45;;;;;;;;;;2073461;28;20176;-64
2020/12/22 02:39:01;;;;;;;17.23;15.52;;;;;;;;;;2066593;28;20197;-63
2020/12/22 02:40:01;;;;;;;15.52;13.93;;;;;;;;;;2065272;28;20220;-62
2020/12/22 02:41:01;;;;;;;17.10;15.35;;;;;;;;;;2061054;28;20181;-62
2020/12/22 02:42:01;;;;;;;16.30;14.55;;;;;;;;;;2057590;28;20167;-62
2020/12/22 02:43:09;;;;;;;17.48;15.75;;;;;;;;;;2057094;28;20700;-60
2020/12/22 02:44:09;;;;;;;16.48;14.88;;;;;;;;;;2065929;28;20212;-63
2020/12/22 02:45:09;;;;;;;17.52;15.75;;;;;;;;;;2063662;28;20544;-61
2020/12/22 02:46:10;;;;;;;17.65;15.85;;;;;;;;;;2064441;28;20639;-60
2020/12/22 02:47:11;;;;;;;17.08;15.40;;;;;;;;;;2065924;28;20244;-62
2020/12/22 02:48:11;;;;;;;18.10;16.30;;;;;;;;;;2062892;28;20841;-64
2020/12/22 02:49:11;;;;;;;18.65;16.85;;;;;;;;;;2061032;28;20217;-63
2020/12/22 02:50:12;;;;;;;19.25;17.35;;;;;;;;;;2058783;28;20205;-62
2020/12/22 02:51:12;;;;;;;19.55;17.65;;;;;;;;;;2047684;29;20174;-61
2020/12/22 02:52:12;;;;;;;19.17;17.27;;;;;;;;;;2049556;28;20179;-59
2020/12/22 02:53:12;;;;;;;16.67;14.93;;;;;;;;;;2056075;28;20272;-62
2020/12/22 02:54:13;;;;;;;19.10;17.30;;;;;;;;;;2055486;28;20189;-61
2020/12/22 02:55:13;;;;;;;18.23;16.50;;;;;;;;;;2061800;28;20188;-62
2020/12/22 02:56:13;;;;;;;19.08;17.17;;;;;;;;;;2061516;28;20178;-62
2020/12/22 02:57:13;;;;;;;19.58;17.75;;;;;;;;;;2063662;28;20163;-62
2020/12/22 02:58:14;;;;;;;19.58;17.75;;;;;;;;;;2061493;28;20166;-63
2020/12/22 02:59:14;;;;;;;20.48;18.55;;;;;;;;;;2066056;28;20666;-64
2020/12/22 03:00:14;;;;;;;20.55;18.55;;;;;;;;;;2072631;28;20173;-61
2020/12/22 03:01:14;;;;;;;20.13;18.10;;;;;;;;;;2074723;28;20174;-62
2020/12/22 03:02:15;;;;;;;20.13;18.20;;;;;;;;;;2071930;28;20184;-62
2020/12/22 03:03:15;;;;;;;20.90;18.90;;;;;;;;;;2068944;28;20253;-61
2020/12/22 03:04:15;;;;;;;19.38;17.55;;;;;;;;;;2068849;28;20221;-59
2020/12/22 03:05:16;;;;;;;19.02;17.02;;;;;;;;;;2063756;28;20178;-62
2020/12/22 03:06:16;;;;;;;20.38;18.38;;;;;;;;;;2064489;28;20181;-64
2020/12/22 03:07:16;;;;;;;23.65;20.23;;;;;;;;;;2068569;28;20649;-61
2020/12/22 03:08:16;;;;;;;21.70;19.50;;;;;;;;;;2072208;28;20169;-61
2020/12/22 03:09:17;;;;;;;20.88;18.67;;;;;;;;;;2070862;28;20209;-62
2020/12/22 03:10:18;;;;;;;21.42;19.33;;;;;;;;;;2071511;28;20184;-62
2020/12/22 03:11:18;;;;;;;19.10;17.30;;;;;;;;;;2071013;28;20201;-61
2020/12/22 03:12:18;;;;;;;20.95;18.95;;;;;;;;;;2063051;28;20206;-61
2020/12/22 03:13:18;;;;;;;17.52;15.82;;;;;;;;;;2064897;28;20208;-62
2020/12/22 03:14:18;;;;;;;20.63;18.10;;;;;;;;;;2062963;28;20184;-59
2020/12/22 03:15:19;;;;;;;20.05;18.08;;;;;;;;;;2066130;28;20711;-63
2020/12/22 03:16:19;;;;;;;20.05;17.95;;;;;;;;;;2068189;28;20648;-58
2020/12/22 03:17:19;;;;;;;21.63;18.00;;;;;;;;;;2055442;28;20627;-60
2020/12/22 03:18:19;;;;;;;21.98;19.85;;;;;;;;;;2056579;28;20225;-58
2020/12/22 03:19:21;;;;;;;19.77;17.77;;;;;;;;;;2064413;28;20198;-63
2020/12/22 03:20:21;;;;;;;21.05;18.85;;;;;;;;;;2064977;28;20182;-62
2020/12/22 03:21:21;;;;;;;18.88;17.00;;;;;;;;;;2055550;28;20170;-61
2020/12/22 03:22:22;;;;;;;18.45;16.65;;;;;;;;;;2057928;28;20171;-63
2020/12/22 03:23:22;;;;;;;18.95;17.05;;;;;;;;;;2064595;28;20207;-60
2020/12/22 03:24:22;;;;;;;18.98;17.05;;;;;;;;;;2061608;28;20210;-62
2020/12/22 03:25:22;;;;;;;17.70;16.00;;;;;;;;;;2056591;28;20193;-61
2020/12/22 03:26:23;;;;;;;17.40;15.70;;;;;;;;;;2055851;28;20188;-61
2020/12/22 03:27:23;;;;;;;16.40;14.75;;;;;;;;;;2067827;28;20165;-63
2020/12/22 03:28:23;;;;;;;15.88;14.27;;;;;;;;;;2066947;28;20638;-62
2020/12/22 03:29:23;;;;;;;17.48;15.85;;;;;;;;;;2056296;28;20200;-62
2020/12/22 03:30:24;;;;;;;17.42;15.75;;;;;;;;;;2056865;28;20174;-63
2020/12/22 03:31:24;;;;;;;14.85;13.45;;;;;;;;;;2061723;28;20177;-63
2020/12/22 03:32:24;;;;;;;12.10;10.90;;;;;;;;;;2057019;28;20248;-63
2020/12/22 03:33:25;;;;;;;15.88;14.48;;;;;;;;;;2064320;28;20192;-62
2020/12/22 03:34:25;;;;;;;16.27;14.68;;;;;;;;;;2064237;28;20174;-62
2020/12/22 03:35:25;;;;;;;15.00;13.60;;;;;;;;;;2057330;28;20697;-63
2020/12/22 03:36:25;;;;;;;16.20;14.63;;;;;;;;;;2055754;28;20213;-60
2020/12/22 03:37:26;;;;;;;14.57;13.27;;;;;;;;;;2064540;28;20173;-63
2020/12/22 03:38:26;;;;;;;15.50;14.00;;;;;;;;;;2055601;28;20178;-64
2020/12/22 03:39:27;;;;;;;14.60;13.32;;;;;;;;;;2056348;28;20258;-61
2020/12/22 03:40:27;;;;;;;15.57;14.10;;;;;;;;;;2062685;28;20251;-60
2020/12/22 03:41:27;;;;;;;15.02;13.73;;;;;;;;;;2069958;28;20596;-59
2020/12/22 03:42:28;;;;;;;16.27;14.68;;;;;;;;;;2062379;28;20409;-61
2020/12/22 03:43:28;;;;;;;16.33;14.63;;;;;;;;;;2063589;28;20192;-63
2020/12/22 03:44:28;;;;;;;15.05;13.65;;;;;;;;;;2060029;28;20549;-61
2020/12/22 03:45:28;;;;;;;16.98;15.25;;;;;;;;;;2062831;28;20173;-62
2020/12/22 03:46:29;;;;;;;17.33;15.63;;;;;;;;;;2064169;28;20189;-63
2020/12/22 03:47:29;;;;;;;15.77;14.18;;;;;;;;;;2065600;28;20239;-63
2020/12/22 03:48:29;;;;;;;17.48;15.88;;;;;;;;;;2064746;28;20178;-63
2020/12/22 03:49:29;;;;;;;16.23;14.55;;;;;;;;;;2058915;28;20226;-63
2020/12/22 03:50:29;;;;;;;15.18;13.82;;;;;;;;;;2064100;28;20257;-63
2020/12/22 03:51:30;;;;;;;14.48;13.25;;;;;;;;;;2059721;28;20273;-64
2020/12/22 03:52:30;;;;;;;13.60;12.30;;;;;;;;;;2060821;28;20224;-64
2020/12/22 03:53:30;;;;;;;14.20;12.77;;;;;;;;;;2057544;28;20182;-63
2020/12/22 03:54:31;;;;;;;12.30;11.18;;;;;;;;;;2055594;28;20186;-64
2020/12/22 03:55:31;;;;;;;11.65;10.55;;;;;;;;;;2056617;28;20182;-58
2020/12/22 03:56:31;;;;;;;10.57;9.77;;;;;;;;;;2056036;28;20186;-65
2020/12/22 03:57:32;;;;;;;10.68;9.88;;;;;;;;;;2063991;28;20185;-64
2020/12/22 03:58:32;;;;;;;9.05;8.35;;;;;;;;;;2064101;28;20185;-64
2020/12/22 03:59:33;;;;;;;10.15;9.25;;;;;;;;;;2064468;28;20173;-63
2020/12/22 04:00:33;;;;;;;10.50;9.70;;;;;;;;;;2064523;28;20584;-62
2020/12/22 04:01:33;;;;;;;9.18;8.43;;;;;;;;;;2070099;28;20275;-61
2020/12/22 04:02:34;;;;;;;9.30;8.57;;;;;;;;;;2057149;28;20190;-63
2020/12/22 04:03:34;;;;;;;9.23;8.52;;;;;;;;;;2055722;28;20197;-62
2020/12/22 04:04:34;;;;;;;7.75;7.15;;;;;;;;;;2064326;28;20177;-59
2020/12/22 04:05:34;;;;;;;9.48;8.68;;;;;;;;;;2055946;28;20236;-62
2020/12/22 04:06:35;;;;;;;9.25;8.52;;;;;;;;;;2055645;28;20182;-62
2020/12/22 04:07:35;;;;;;;9.70;8.90;;;;;;;;;;2055862;28;20185;-64
2020/12/22 04:08:35;;;;;;;8.02;7.32;;;;;;;;;;2047551;28;20205;-61
2020/12/22 04:09:36;;;;;;;9.50;8.63;;;;;;;;;;2055778;28;20186;-62
2020/12/22 04:10:36;;;;;;;5.70;5.30;;;;;;;;;;2064093;28;20182;-63
2020/12/22 04:11:36;;;;;;;9.07;8.27;;;;;;;;;;2064317;28;20205;-63
2020/12/22 04:12:36;;;;;;;9.25;8.55;;;;;;;;;;2064640;28;20208;-64
2020/12/22 04:13:37;;;;;;;8.88;8.18;;;;;;;;;;2064816;28;20261;-63
2020/12/22 04:14:37;;;;;;;6.72;6.13;;;;;;;;;;2055286;28;20593;-63
2020/12/22 04:15:37;;;;;;;9.13;8.25;;;;;;;;;;2055564;28;20174;-60
2020/12/22 04:16:37;;;;;;;8.70;8.00;;;;;;;;;;2064902;28;20638;-62
2020/12/22 04:17:40;;;;;;;7.85;7.25;;;;;;;;;;2055881;28;20263;-61
2020/12/22 04:18:40;;;;;;;6.80;6.20;;;;;;;;;;2048228;28;20217;-62
2020/12/22 04:19:40;;;;;;;7.28;6.78;;;;;;;;;;2051658;28;20262;-62
2020/12/22 04:20:41;;;;;;;7.82;7.22;;;;;;;;;;2064742;28;20326;-62
2020/12/22 04:21:41;;;;;;;7.05;6.55;;;;;;;;;;2056486;28;20171;-62
2020/12/22 04:22:41;;;;;;;6.47;5.97;;;;;;;;;;2069638;28;20204;-61
2020/12/22 04:23:42;;;;;;;7.18;6.57;;;;;;;;;;2061339;28;20213;-63
2020/12/22 04:24:42;;;;;;;6.30;5.72;;;;;;;;;;2064933;28;20173;-63
2020/12/22 04:25:42;;;;;;;6.32;5.90;;;;;;;;;;2060176;28;20714;-63
2020/12/22 04:26:43;;;;;;;6.00;5.47;;;;;;;;;;2057901;28;20177;-66
2020/12/22 04:27:43;;;;;;;6.07;5.47;;;;;;;;;;2055769;28;20189;-60
2020/12/22 04:28:43;;;;;;;5.00;4.70;;;;;;;;;;2065152;28;20182;-61
2020/12/22 04:29:45;;;;;;;5.53;5.13;;;;;;;;;;2065013;28;20181;-62
2020/12/22 04:30:45;;;;;;;4.35;4.05;;;;;;;;;;2065206;28;20192;-61
2020/12/22 04:31:45;;;;;;;4.47;4.18;;;;;;;;;;2062317;28;20190;-62
2020/12/22 04:32:45;;;;;;;5.78;5.38;;;;;;;;;;2056629;28;20256;-63
2020/12/22 04:33:46;;;;;;;5.90;5.50;;;;;;;;;;2060252;28;20165;-63
2020/12/22 04:34:46;;;;;;;5.60;5.10;;;;;;;;;;2068148;28;20174;-61
2020/12/22 04:35:46;;;;;;;4.72;4.43;;;;;;;;;;2065342;28;20818;-61
2020/12/22 04:36:47;;;;;;;4.72;4.30;;;;;;;;;;2067990;28;20254;-62
2020/12/22 04:37:47;;;;;;;3.72;3.30;;;;;;;;;;2058329;28;20277;-61
2020/12/22 04:38:48;;;;;;;4.43;4.10;;;;;;;;;;2057443;28;20727;-59
2020/12/22 04:39:48;;;;;;;4.10;3.80;;;;;;;;;;2064398;28;20185;-62
2020/12/22 04:40:48;;;;;;;4.22;3.97;;;;;;;;;;2063979;28;20196;-63
2020/12/22 04:41:49;;;;;;;4.80;4.50;;;;;;;;;;2058480;28;20282;-64
2020/12/22 04:42:49;;;;;;;3.42;3.22;;;;;;;;;;2049865;28;20259;-62
2020/12/22 04:43:50;;;;;;;4.25;3.95;;;;;;;;;;2065272;28;20682;-63
2020/12/22 04:44:51;;;;;;;4.05;3.70;;;;;;;;;;2064438;28;20193;-62
2020/12/22 04:45:52;;;;;;;3.97;3.78;;;;;;;;;;2065599;28;20215;-63
2020/12/22 04:46:52;;;;;;;4.00;3.70;;;;;;;;;;2056425;28;20246;-62
2020/12/22 04:47:53;;;;;;;3.83;3.53;;;;;;;;;;2056019;28;20197;-60
2020/12/22 04:48:55;;;;;;;4.10;3.80;;;;;;;;;;2064649;28;20194;-61
2020/12/22 04:49:57;;;;;;;4.40;4.07;;;;;;;;;;2066213;28;20666;-59
2020/12/22 04:50:57;;;;;;;5.68;4.20;;;;;;;;;;2060593;28;20623;-63
2020/12/22 04:51:58;;;;;;;3.90;3.60;;;;;;;;;;2063780;28;20188;-62
2020/12/22 04:52:58;;;;;;;4.38;4.07;;;;;;;;;;2060761;28;20802;-61
2020/12/22 04:53:58;;;;;;;3.80;3.45;;;;;;;;;;2070002;28;20248;-62
2020/12/22 04:54:59;;;;;;;3.70;3.50;;;;;;;;;;2066253;28;20201;-59
2020/12/22 04:56:00;;;;;;;3.90;3.60;;;;;;;;;;2064969;28;20214;-60
2020/12/22 04:57:04;;;;;;;3.85;3.63;;;;;;;;;;2067467;28;20522;-63
2020/12/22 04:58:05;;;;;;;4.28;4.00;;;;;;;;;;2056579;28;20174;-62
2020/12/22 04:59:05;;;;;;;4.20;3.58;;;;;;;;;;2057372;28;20205;-63
2020/12/22 05:00:06;;;;;;;3.22;3.03;;;;;;;;;;2067014;28;20197;-62
2020/12/22 05:01:06;;;;;;;2.97;2.78;;;;;;;;;;2065332;28;20178;-61
2020/12/22 05:02:07;;;;;;;3.72;3.40;;;;;;;;;;2066210;28;20170;-61
2020/12/22 05:03:08;;;;;;;3.28;3.08;;;;;;;;;;2065032;28;20178;-62
2020/12/22 05:04:12;;;;;;;3.65;3.42;;;;;;;;;;2069962;28;20614;-63
2020/12/22 05:05:12;;;;;;;2.78;2.58;;;;;;;;;;2063955;28;20181;-60
2020/12/22 05:06:12;;;;;;;3.15;2.90;;;;;;;;;;2066340;28;20216;-63
2020/12/22 05:07:13;;;;;;;3.30;3.10;;;;;;;;;;2065613;28;20577;-62
2020/12/22 05:08:13;;;;;;;3.22;3.03;;;;;;;;;;2056751;28;20614;-59
2020/12/22 05:09:14;;;;;;;3.30;2.88;;;;;;;;;;2053685;28;20283;-59
2020/12/22 05:10:14;;;;;;;3.95;3.65;;;;;;;;;;2065223;28;20169;-60
2020/12/22 05:11:15;;;;;;;3.80;3.45;;;;;;;;;;2057114;28;20269;-63
2020/12/22 05:12:15;;;;;;;3.53;3.22;;;;;;;;;;2057425;28;20175;-63
2020/12/22 05:13:16;;;;;;;4.30;2.80;;;;;;;;;;2066305;28;20622;-62
2020/12/22 05:14:16;;;;;;;3.00;2.90;;;;;;;;;;2067186;28;20173;-61
2020/12/22 05:15:17;;;;;;;2.65;2.47;;;;;;;;;;2062981;28;20192;-61
2020/12/22 05:16:24;;;;;;;2.78;2.60;;;;;;;;;;2065427;28;20204;-63
2020/12/22 05:17:24;;;;;;;2.95;2.75;;;;;;;;;;2065726;28;20166;-62
2020/12/22 05:18:25;;;;;;;2.92;2.72;;;;;;;;;;2056441;28;20663;-62
2020/12/22 05:19:33;;;;;;;2.45;2.35;;;;;;;;;;2059560;28;20652;-63
2020/12/22 05:20:33;;;;;;;2.40;2.17;;;;;;;;;;2065464;28;20190;-60
2020/12/22 05:21:35;;;;;;;2.10;1.92;;;;;;;;;;2066052;28;20174;-62
2020/12/22 05:22:35;;;;;;;1.95;1.85;;;;;;;;;;2065408;28;20185;-63
2020/12/22 05:23:36;;;;;;;1.70;1.60;;;;;;;;;;2068696;28;20199;-61
2020/12/22 05:24:37;;;;;;;1.75;1.65;;;;;;;;;;2059134;28;20194;-63
2020/12/22 05:25:38;;;;;;;1.40;1.38;;;;;;;;;;2065543;28;20615;-64
2020/12/22 05:26:40;;;;;;;1.52;1.52;;;;;;;;;;2059848;28;20178;-62
2020/12/22 05:27:40;;;;;;;1.30;1.20;;;;;;;;;;2064824;28;20178;-64
2020/12/22 05:28:40;;;;;;;2.15;1.50;;;;;;;;;;2065921;28;20192;-63
2020/12/22 05:29:40;;;;;;;1.27;1.27;;;;;;;;;;2066481;28;20182;-63
2020/12/22 05:30:41;;;;;;;1.20;1.20;;;;;;;;;;2066527;28;21024;-62
2020/12/22 05:31:43;;;;;;;1.02;1.02;;;;;;;;;;2070567;28;20173;-62
2020/12/22 05:32:43;;;;;;;1.58;1.48;;;;;;;;;;2065161;28;20209;-62
2020/12/22 05:33:44;;;;;;;1.05;1.05;;;;;;;;;;2066205;28;20255;-61
2020/12/22 05:34:45;;;;;;;1.63;1.20;;;;;;;;;;2065884;28;20181;-61
2020/12/22 05:35:46;;;;;;;1.30;1.08;;;;;;;;;;2063934;28;20249;-62
2020/12/22 05:36:47;;;;;;;1.15;1.10;;;;;;;;;;2066704;28;20170;-60
2020/12/22 05:37:48;;;;;;;1.30;1.30;;;;;;;;;;2059717;28;20181;-59
2020/12/22 05:38:50;;;;;;;1.25;1.25;;;;;;;;;;2058629;28;20181;-60
2020/12/22 05:39:50;;;;;;;1.27;1.15;;;;;;;;;;2056565;28;20597;-59
2020/12/22 05:40:51;;;;;;;1.10;1.10;;;;;;;;;;2049332;29;20171;-60
2020/12/22 05:41:52;;;;;;;0.70;0.70;;;;;;;;;;2053816;28;20543;-60
2020/12/22 05:42:53;;;;;;;1.35;1.35;;;;;;;;;;2066551;28;20232;-62
2020/12/22 05:43:53;;;;;;;0.98;0.98;;;;;;;;;;2068906;28;20238;-62
2020/12/22 05:44:53;;;;;;;1.17;1.17;;;;;;;;;;2066115;28;20642;-60
2020/12/22 05:45:53;;;;;;;1.10;1.10;;;;;;;;;;2061497;28;20619;-61
2020/12/22 05:46:58;;;;;;;0.90;0.90;;;;;;;;;;2066251;28;20174;-61
2020/12/22 05:47:59;;;;;;;1.10;1.10;;;;;;;;;;2062183;28;20182;-63
2020/12/22 05:49:04;;;;;;;1.10;1.10;;;;;;;;;;2067109;28;20205;-62
2020/12/22 05:50:04;;;;;;;1.25;1.25;;;;;;;;;;2067248;28;20196;-62
2020/12/22 05:51:08;;;;;;;1.00;1.00;;;;;;;;;;2066500;28;20170;-62
2020/12/22 05:52:08;;;;;;;1.15;1.15;;;;;;;;;;2065809;28;20217;-62
2020/12/22 05:53:09;;;;;;;1.15;1.15;;;;;;;;;;2058546;28;20194;-63
2020/12/22 05:54:12;;;;;;;1.20;1.20;;;;;;;;;;2059749;28;20185;-63
2020/12/22 05:55:23;;;;;;;1.23;1.23;;;;;;;;;;2058215;28;20182;-62
2020/12/22 05:56:24;;;;;;;1.30;1.30;;;;;;;;;;2058846;28;20234;-61
2020/12/22 05:57:27;;;;;;;1.63;1.52;;;;;;;;;;2070628;28;20179;-61
2020/12/22 05:58:29;;;;;;;1.40;1.40;;;;;;;;;;2068212;28;20182;-63
2020/12/22 05:59:29;;;;;;;1.67;1.40;;;;;;;;;;2065957;28;20215;-63